Impacts TAF Board INFO
FOR SITUATIONAL AWARENESS. NOT TO BE USED FOR FLIGHT PLANNING PURPOSES.
IDs:

KGWO - Greenwood/Leflore Ar, MS, US

Issued at 1120 UTC 22 Nov 2017
Updated at 1306 UTC 22 Nov 2017
Potential Impact None Slight Moderate High
Time1253Z 22/14Z 22/15Z 22/16Z 22/17Z 22/18Z 22/19Z 22/20Z 22/21Z 22/22Z 22/23Z 23/00Z 23/01Z 23/02Z>>
Type OBS PRVL PRVL PRVL PRVL PRVL PRVL PRVL PRVL PRVL PRVL PRVL PRVL PRVL
VIS 10 >6 >6 >6 >6 >6 >6 >6 >6 >6 >6 >6 >6 >6
CIG -- -- -- -- -- -- -- -- -- -- -- -- -- --
Cover CLR SKC SKC SKC SKC SKC SKC SKC SKC SKC SKC SKC SKC SKC
FltCat VFR VFR VFR VFR VFR VFR VFR VFR VFR VFR VFR VFR VFR VFR
WX -- -- -- -- -- -- -- -- -- -- -- -- -- --
WDir 10 10 10 10 10 10 10 10 10 10 10 360 360 360
WSpd 7 10 10 10 10 10 10 10 10 10 10 4 4 4
WGst -- 16 16 16 16 16 16 16 16 16 16 -- -- --

Raw TAF
KGWO 221120Z 2212/2312 01010G16KT P6SM SKC
  FM230000 36004KT P6SM SKC


Raw METAR
KGWO 221253Z AUTO 01007KT 10SM CLR 05/01 A3025 RMK AO2 SLP243 T00500011 $
KGWO 221153Z AUTO 01007KT 10SM CLR 06/03 A3020 RMK AO2 SLP225 60000 T00560028 10061 20017 53020 $
KGWO 221053Z AUTO 01004KT 10SM CLR 04/03 A3017 RMK AO2 SLP217 T00440028 $

METAR Board
Radar Display
Forecast Discussion

FOR SITUATIONAL AWARENESS. NOT TO BE USED FOR FLIGHT PLANNING PURPOSES.